createdAt,value
2017-04-21T00:00:10.984Z,17.70
2017-04-21T00:01:09.179Z,16.47
2017-04-21T00:02:07.045Z,17.13
2017-04-21T00:03:04.970Z,15.25
2017-04-21T00:04:02.817Z,17.73
2017-04-21T00:05:00.658Z,16.75
2017-04-21T00:05:58.493Z,18.53
2017-04-21T00:06:56.309Z,17.83
2017-04-21T00:07:54.181Z,17.33
2017-04-21T00:08:51.998Z,19.10
2017-04-21T00:09:49.822Z,17.87
2017-04-21T00:10:47.685Z,16.47
2017-04-21T00:11:45.518Z,16.23
2017-04-21T00:12:43.342Z,17.60
2017-04-21T00:13:41.230Z,18.52
2017-04-21T00:14:39.075Z,17.98
2017-04-21T00:15:37.309Z,16.23
2017-04-21T00:16:35.505Z,17.05
2017-04-21T00:17:33.361Z,17.60
2017-04-21T00:18:31.391Z,16.98
2017-04-21T00:19:29.263Z,17.32
2017-04-21T00:20:27.089Z,18.88
2017-04-21T00:21:24.942Z,17.28
2017-04-21T00:22:22.762Z,18.00
2017-04-21T00:23:20.591Z,17.98
2017-04-21T00:24:18.414Z,16.42
2017-04-21T00:25:16.314Z,18.13
2017-04-21T00:26:14.134Z,16.50
2017-04-21T00:27:11.972Z,18.32
2017-04-21T00:28:09.798Z,19.18
2017-04-21T00:29:07.626Z,17.93
2017-04-21T00:30:05.469Z,17.80
2017-04-21T00:31:03.341Z,18.58
2017-04-21T00:32:01.165Z,16.12
2017-04-21T00:32:59.014Z,17.25
2017-04-21T00:33:57.219Z,18.57
2017-04-21T00:34:55.038Z,17.73
2017-04-21T00:35:52.869Z,17.75
2017-04-21T00:36:50.741Z,18.30
2017-04-21T00:37:48.597Z,18.65
2017-04-21T00:38:46.423Z,16.78
2017-04-21T00:39:44.250Z,18.37
2017-04-21T00:40:42.085Z,17.12
2017-04-21T00:41:39.906Z,18.88
2017-04-21T00:42:37.378Z,17.87
2017-04-21T00:43:35.205Z,18.72
2017-04-21T00:44:33.327Z,17.98
2017-04-21T00:45:31.137Z,18.30
2017-04-21T00:46:28.961Z,17.47
2017-04-21T00:47:26.793Z,16.83
2017-04-21T00:48:24.666Z,17.10
2017-04-21T00:49:22.489Z,16.23
2017-04-21T00:50:20.321Z,18.37
2017-04-21T00:52:22.386Z,17.35
2017-04-21T00:53:20.262Z,18.00
2017-04-21T00:54:17.793Z,16.82
2017-04-21T00:55:15.637Z,17.57
2017-04-21T00:56:13.500Z,17.95
2017-04-21T00:57:11.345Z,16.03
2017-04-21T00:58:09.249Z,17.45
2017-04-21T00:59:07.366Z,17.07
2017-04-21T01:00:05.239Z,17.48
2017-04-21T01:01:03.083Z,19.57
2017-04-21T01:02:00.926Z,16.50
2017-04-21T01:02:58.533Z,18.68
2017-04-21T01:03:56.372Z,18.62
2017-04-21T01:04:54.199Z,16.08
2017-04-21T01:05:52.062Z,16.95
2017-04-21T01:06:49.905Z,17.17
2017-04-21T01:07:47.739Z,16.52
2017-04-21T01:08:45.562Z,17.17
2017-04-21T01:09:43.416Z,17.45
2017-04-21T01:10:41.281Z,17.37
2017-04-21T01:11:39.161Z,17.95
2017-04-21T01:12:36.975Z,17.45
2017-04-21T01:13:34.802Z,17.98
2017-04-21T01:14:33.351Z,16.83
2017-04-21T01:15:31.233Z,16.90
2017-04-21T01:16:29.057Z,17.02
2017-04-21T01:17:27.281Z,17.35
2017-04-21T01:18:25.113Z,17.67
2017-04-21T01:19:22.942Z,16.37
2017-04-21T01:20:20.787Z,16.58
2017-04-21T01:21:18.618Z,17.42
2017-04-21T01:22:16.462Z,16.00
2017-04-21T01:23:14.322Z,17.67
2017-04-21T01:24:12.529Z,17.15
2017-04-21T01:25:10.365Z,17.70
2017-04-21T01:26:08.193Z,17.42
2017-04-21T01:27:06.013Z,17.40
2017-04-21T01:28:03.849Z,17.37
2017-04-21T01:29:01.719Z,17.30
2017-04-21T01:29:59.903Z,17.90
2017-04-21T01:30:57.905Z,16.68
2017-04-21T01:31:55.733Z,18.38
2017-04-21T01:32:53.567Z,17.12
2017-04-21T01:33:51.427Z,17.87
2017-04-21T01:34:49.245Z,18.03
2017-04-21T01:35:47.114Z,17.97
2017-04-21T01:36:45.306Z,16.77
2017-04-21T01:37:43.125Z,18.10
2017-04-21T01:38:40.986Z,16.40
2017-04-21T01:39:38.838Z,17.93
2017-04-21T01:40:36.662Z,19.73
2017-04-21T01:41:34.477Z,16.47
2017-04-21T01:42:32.593Z,16.93
2017-04-21T01:43:30.453Z,16.75
2017-04-21T01:44:28.269Z,17.32
2017-04-21T01:45:26.089Z,16.50
2017-04-21T01:46:23.949Z,16.25
2017-04-21T01:47:21.769Z,17.50
2017-04-21T01:48:19.586Z,19.18
2017-04-21T01:49:17.478Z,17.93
2017-04-21T01:50:15.290Z,19.47
2017-04-21T01:51:13.493Z,17.68
2017-04-21T01:52:11.314Z,19.05
2017-04-21T01:53:09.149Z,16.73
2017-04-21T01:54:06.971Z,18.40
2017-04-21T01:55:04.853Z,16.88
2017-04-21T01:56:02.752Z,18.42
2017-04-21T01:57:00.581Z,17.73
2017-04-21T01:57:58.397Z,17.28
2017-04-21T01:58:56.214Z,17.03
2017-04-21T01:59:54.030Z,17.72
2017-04-21T02:00:51.919Z,17.20
2017-04-21T02:01:49.741Z,19.35
2017-04-21T02:02:47.571Z,18.63
2017-04-21T02:03:45.404Z,17.98
2017-04-21T02:04:43.301Z,16.28
2017-04-21T02:05:41.159Z,15.50
2017-04-21T02:06:38.701Z,16.72
2017-04-21T02:07:36.527Z,17.57
2017-04-21T02:08:34.369Z,17.18
2017-04-21T02:09:32.221Z,16.27
2017-04-21T02:10:30.054Z,17.08
2017-04-21T02:11:27.510Z,16.52
2017-04-21T02:12:25.394Z,16.25
2017-04-21T02:13:23.227Z,16.75
2017-04-21T02:14:21.554Z,17.88
2017-04-21T02:15:19.402Z,17.18
2017-04-21T02:16:17.270Z,18.15
2017-04-21T02:17:15.097Z,17.03
2017-04-21T02:18:12.990Z,15.92
2017-04-21T02:19:10.819Z,17.43
2017-04-21T02:20:08.646Z,17.83
2017-04-21T02:21:06.473Z,16.87
2017-04-21T02:22:04.291Z,16.87
2017-04-21T02:23:02.121Z,17.72
2017-04-21T02:23:59.994Z,18.92
2017-04-21T02:24:57.818Z,18.10
2017-04-21T02:25:55.634Z,17.03
2017-04-21T02:26:53.457Z,18.18
2017-04-21T02:27:51.282Z,17.68
2017-04-21T02:28:49.117Z,17.70
2017-04-21T02:29:47.038Z,18.35
2017-04-21T02:30:44.478Z,17.27
2017-04-21T02:31:42.318Z,17.98
2017-04-21T02:32:40.149Z,19.22
2017-04-21T02:33:37.966Z,17.57
2017-04-21T02:34:35.809Z,18.80
2017-04-21T02:35:33.677Z,17.92
2017-04-21T02:36:31.508Z,17.02
2017-04-21T02:37:29.385Z,19.27
2017-04-21T02:38:27.193Z,17.75
2017-04-21T02:39:25.001Z,18.82
2017-04-21T02:40:22.886Z,18.35
2017-04-21T02:41:20.745Z,16.68
2017-04-21T02:42:18.561Z,18.72
2017-04-21T02:43:15.997Z,18.05
2017-04-21T02:44:13.810Z,17.05
2017-04-21T02:45:11.661Z,19.20
2017-04-21T02:46:09.474Z,18.62
2017-04-21T02:47:07.345Z,20.02
2017-04-21T02:48:05.157Z,20.03
2017-04-21T02:49:02.967Z,19.37
2017-04-21T02:50:00.778Z,19.70
2017-04-21T02:50:58.961Z,18.22
2017-04-21T02:51:56.778Z,18.85
2017-04-21T02:52:54.630Z,18.35
2017-04-21T02:53:52.523Z,19.17
2017-04-21T02:54:50.333Z,17.33
2017-04-21T02:55:48.135Z,19.03
2017-04-21T02:56:45.949Z,18.85
2017-04-21T02:57:43.762Z,19.18
2017-04-21T02:58:41.618Z,18.48
2017-04-21T02:59:39.429Z,20.27
2017-04-21T03:00:37.238Z,17.80
2017-04-21T03:01:35.058Z,17.85
2017-04-21T03:02:32.876Z,20.05
2017-04-21T03:03:30.695Z,18.70
2017-04-21T03:04:28.565Z,17.68
2017-04-21T03:05:26.373Z,19.18
2017-04-21T03:06:24.559Z,18.42
2017-04-21T03:07:22.371Z,17.75
2017-04-21T03:08:20.185Z,17.35
2017-04-21T03:09:17.999Z,19.83
2017-04-21T03:10:15.894Z,19.38
2017-04-21T03:11:13.722Z,18.83
2017-04-21T03:12:11.553Z,18.10
2017-04-21T03:13:09.369Z,18.10
2017-04-21T03:14:07.185Z,17.80
2017-04-21T03:15:04.985Z,19.35
2017-04-21T03:16:02.913Z,19.55
2017-04-21T03:17:00.777Z,19.50
2017-04-21T03:17:58.642Z,18.57
2017-04-21T03:18:56.462Z,20.98
2017-04-21T03:19:54.723Z,20.97
2017-04-21T03:20:52.524Z,19.13
2017-04-21T03:21:50.438Z,21.23
2017-04-21T03:22:48.261Z,20.65
2017-04-21T03:23:46.093Z,18.83
2017-04-21T03:24:43.913Z,19.87
2017-04-21T03:25:41.760Z,20.05
2017-04-21T03:26:39.581Z,21.30
2017-04-21T03:27:37.441Z,19.23
2017-04-21T03:28:35.641Z,18.65
2017-04-21T03:29:33.463Z,20.27
2017-04-21T03:30:31.309Z,20.30
2017-04-21T03:31:29.130Z,21.05
2017-04-21T03:32:27.009Z,18.52
2017-04-21T03:33:24.885Z,20.88
2017-04-21T03:34:22.733Z,19.32
2017-04-21T03:35:20.553Z,21.67
2017-04-21T03:36:18.374Z,19.17
2017-04-21T03:37:16.243Z,19.37
2017-04-21T03:38:14.066Z,20.50
2017-04-21T03:39:11.949Z,20.42
2017-04-21T03:40:09.808Z,19.92
2017-04-21T03:41:07.630Z,20.75
2017-04-21T03:42:05.456Z,19.55
2017-04-21T03:43:03.697Z,21.27
2017-04-21T03:44:01.547Z,20.70
2017-04-21T03:44:59.422Z,20.75
2017-04-21T03:45:57.242Z,20.85
2017-04-21T03:46:54.685Z,20.13
2017-04-21T03:47:52.511Z,20.72
2017-04-21T03:48:50.326Z,20.75
2017-04-21T03:49:48.169Z,19.50
2017-04-21T03:50:46.050Z,19.02
2017-04-21T03:51:43.869Z,20.37
2017-04-21T03:52:41.682Z,20.42
2017-04-21T03:53:39.502Z,20.90
2017-04-21T03:54:37.334Z,20.65
2017-04-21T03:55:35.181Z,20.07
2017-04-21T03:56:33.081Z,19.98
2017-04-21T03:57:30.901Z,20.83
2017-04-21T03:58:28.729Z,21.42
2017-04-21T03:59:26.921Z,21.50
2017-04-21T04:00:24.741Z,20.98
2017-04-21T04:01:22.576Z,20.23
2017-04-21T04:02:20.475Z,18.98
2017-04-21T04:03:18.322Z,20.08
2017-04-21T04:04:16.169Z,19.23
2017-04-21T04:05:14.001Z,21.93
2017-04-21T04:06:11.945Z,22.08
2017-04-21T04:07:09.773Z,18.70
2017-04-21T04:08:07.634Z,20.90
2017-04-21T04:09:05.478Z,21.28
2017-04-21T04:10:03.306Z,20.90
2017-04-21T04:11:01.165Z,19.85
2017-04-21T04:11:58.997Z,20.05
2017-04-21T04:12:57.198Z,24.22
2017-04-21T04:13:55.091Z,20.75
2017-04-21T04:14:52.919Z,20.35
2017-04-21T04:15:50.750Z,20.97
2017-04-21T04:16:48.752Z,20.83
2017-04-21T04:17:46.685Z,20.60
2017-04-21T04:18:44.521Z,19.78
2017-04-21T04:19:42.413Z,22.05
2017-04-21T04:20:40.233Z,20.62
2017-04-21T04:21:38.058Z,20.50
2017-04-21T04:22:35.881Z,21.48
2017-04-21T04:23:33.701Z,21.08
2017-04-21T04:24:31.543Z,19.25
2017-04-21T04:25:29.033Z,20.80
2017-04-21T04:26:27.249Z,22.98
2017-04-21T04:27:25.105Z,19.72
2017-04-21T04:28:22.929Z,18.57
2017-04-21T04:29:20.749Z,20.70
2017-04-21T04:30:18.570Z,20.47
2017-04-21T04:31:16.433Z,21.03
2017-04-21T04:32:14.265Z,21.12
2017-04-21T04:33:12.143Z,20.35
2017-04-21T04:34:09.969Z,20.82
2017-04-21T04:35:07.810Z,19.47
2017-04-21T04:36:05.637Z,20.10
2017-04-21T04:37:03.534Z,19.82
2017-04-21T04:38:00.974Z,20.63
2017-04-21T04:38:58.794Z,20.27
2017-04-21T04:39:56.613Z,20.95
2017-04-21T04:40:54.442Z,20.60
2017-04-21T04:41:52.261Z,21.45
2017-04-21T04:42:50.150Z,19.97
2017-04-21T04:43:47.983Z,21.72
2017-04-21T04:44:45.814Z,20.93
2017-04-21T04:45:43.662Z,21.12
2017-04-21T04:46:41.477Z,21.63
2017-04-21T04:47:39.315Z,19.80
2017-04-21T04:48:37.605Z,20.50
2017-04-21T04:49:35.450Z,21.08
2017-04-21T04:50:33.298Z,20.40
2017-04-21T04:51:31.184Z,21.23
2017-04-21T04:52:29.038Z,19.78
2017-04-21T04:53:26.887Z,19.93
2017-04-21T04:54:24.369Z,22.42
2017-04-21T04:55:22.210Z,21.27
2017-04-21T04:56:20.054Z,23.25
2017-04-21T04:57:17.897Z,21.33
2017-04-21T04:58:16.097Z,20.07
2017-04-21T04:59:13.916Z,23.28
2017-04-21T05:00:11.809Z,22.83
2017-04-21T05:01:09.630Z,20.87
2017-04-21T05:02:07.555Z,23.65
2017-04-21T05:03:05.801Z,21.30
2017-04-21T05:04:03.621Z,20.15
2017-04-21T05:05:01.843Z,21.87
2017-04-21T05:05:59.709Z,56.20
2017-04-21T05:06:57.542Z,23.47
2017-04-21T05:07:55.742Z,21.97
2017-04-21T05:08:53.569Z,23.22
2017-04-21T05:09:51.385Z,21.18
2017-04-21T05:10:49.222Z,21.52
2017-04-21T05:11:47.107Z,20.62
2017-04-21T05:12:45.175Z,22.63
2017-04-21T05:13:43.017Z,22.70
2017-04-21T05:14:40.853Z,19.98
2017-04-21T05:15:38.693Z,22.05
2017-04-21T05:16:36.565Z,22.03
2017-04-21T05:17:34.460Z,21.42
2017-04-21T05:18:32.385Z,20.93
2017-04-21T05:19:30.241Z,20.88
2017-04-21T05:20:28.089Z,20.50
2017-04-21T05:21:25.937Z,20.75
2017-04-21T05:22:23.771Z,21.63
2017-04-21T05:23:21.634Z,21.25
2017-04-21T05:24:19.469Z,20.60
2017-04-21T05:25:17.297Z,22.42
2017-04-21T05:26:15.126Z,20.68
2017-04-21T05:27:12.970Z,21.22
2017-04-21T05:28:10.834Z,21.62
2017-04-21T05:29:08.733Z,22.07
2017-04-21T05:30:06.590Z,21.62
2017-04-21T05:31:04.032Z,21.45
2017-04-21T05:32:01.878Z,20.98
2017-04-21T05:32:59.705Z,21.75
2017-04-21T05:33:57.581Z,23.70
2017-04-21T05:34:55.472Z,21.55
2017-04-21T05:35:53.294Z,20.93
2017-04-21T05:36:51.127Z,21.10
2017-04-21T05:37:48.982Z,23.67
2017-04-21T05:38:46.803Z,22.43
2017-04-21T05:39:44.637Z,21.83
2017-04-21T05:40:42.542Z,21.60
2017-04-21T05:41:40.393Z,21.08
2017-04-21T05:42:38.230Z,24.62
2017-04-21T05:43:36.061Z,21.70
2017-04-21T05:44:33.878Z,22.73
2017-04-21T05:45:31.737Z,22.07
2017-04-21T05:46:29.597Z,22.47
2017-04-21T05:47:27.413Z,24.35
2017-04-21T05:48:25.233Z,22.57
2017-04-21T05:49:23.058Z,22.95
2017-04-21T05:50:20.877Z,22.32
2017-04-21T05:51:18.822Z,23.65
2017-04-21T05:52:16.994Z,22.27
2017-04-21T05:53:14.813Z,22.97
2017-04-21T05:54:12.642Z,24.18
2017-04-21T05:55:10.464Z,21.78
2017-04-21T05:56:08.298Z,21.37
2017-04-21T05:57:06.161Z,23.67
2017-04-21T05:58:04.042Z,22.33
2017-04-21T05:59:01.491Z,21.60
2017-04-21T05:59:59.315Z,25.25
2017-04-21T06:00:57.171Z,22.58
2017-04-21T06:01:55.021Z,21.77
2017-04-21T06:02:52.842Z,24.27
2017-04-21T06:03:50.713Z,23.13
2017-04-21T06:04:48.709Z,25.13
2017-04-21T06:05:46.533Z,23.92
2017-04-21T06:06:44.358Z,21.23
2017-04-21T06:07:42.181Z,25.35
2017-04-21T06:08:40.006Z,28.20
2017-04-21T06:09:37.874Z,23.52
2017-04-21T06:10:35.725Z,22.37
2017-04-21T06:11:33.546Z,22.82
2017-04-21T06:12:31.389Z,23.20
2017-04-21T06:13:29.243Z,25.20
2017-04-21T06:14:27.445Z,21.52
2017-04-21T06:15:25.319Z,22.27
2017-04-21T06:16:23.148Z,22.43
2017-04-21T06:17:21.345Z,23.57
2017-04-21T06:18:19.161Z,21.53
2017-04-21T06:19:16.989Z,23.92
2017-04-21T06:20:14.829Z,23.10
2017-04-21T06:21:12.746Z,21.72
2017-04-21T06:22:10.569Z,22.93
2017-04-21T06:23:08.394Z,22.78
2017-04-21T06:24:06.240Z,22.17
2017-04-21T06:25:04.102Z,24.13
2017-04-21T06:26:01.922Z,23.55
2017-04-21T06:26:59.810Z,22.48
2017-04-21T06:27:57.641Z,23.15
2017-04-21T06:28:55.450Z,22.15
2017-04-21T06:29:53.259Z,22.85
2017-04-21T06:30:51.093Z,22.33
2017-04-21T06:31:48.904Z,20.90
2017-04-21T06:32:46.775Z,22.22
2017-04-21T06:33:44.637Z,23.37
2017-04-21T06:34:42.458Z,22.33
2017-04-21T06:35:40.285Z,24.72
2017-04-21T06:36:38.098Z,23.63
2017-04-21T06:37:35.910Z,23.55
2017-04-21T06:38:33.761Z,22.50
2017-04-21T06:39:31.573Z,20.85
2017-04-21T06:40:29.400Z,27.72
2017-04-21T06:41:27.276Z,23.45
2017-04-21T06:42:25.078Z,21.70
2017-04-21T06:43:22.902Z,23.10
2017-04-21T06:44:20.757Z,24.47
2017-04-21T06:45:18.577Z,23.08
2017-04-21T06:46:16.406Z,23.72
2017-04-21T06:47:14.217Z,23.37
2017-04-21T06:48:12.026Z,22.32
2017-04-21T06:49:09.837Z,23.28
2017-04-21T06:50:07.786Z,23.60
2017-04-21T06:51:05.597Z,22.62
2017-04-21T06:52:03.406Z,22.33
2017-04-21T06:53:01.222Z,23.75
2017-04-21T06:53:59.054Z,24.60
2017-04-21T06:54:56.877Z,23.70
2017-04-21T06:55:54.733Z,24.47
2017-04-21T06:56:52.565Z,23.73
2017-04-21T06:57:50.442Z,23.02
2017-04-21T06:58:48.253Z,23.98
2017-04-21T06:59:46.085Z,23.78
2017-04-21T07:00:43.901Z,24.30
2017-04-21T07:01:41.754Z,27.62
2017-04-21T07:02:54.258Z,24.72
2017-04-21T07:03:52.069Z,24.73
2017-04-21T07:04:49.878Z,25.35
2017-04-21T07:05:47.717Z,23.15
2017-04-21T07:06:45.570Z,24.63
2017-04-21T07:07:43.386Z,23.83
2017-04-21T07:08:41.198Z,23.87
2017-04-21T07:09:39.052Z,22.67
2017-04-21T07:10:36.882Z,24.37
2017-04-21T07:11:34.698Z,21.85
2017-04-21T07:12:33.319Z,24.62
2017-04-21T07:13:31.137Z,23.57
2017-04-21T07:14:28.954Z,22.75
2017-04-21T07:15:26.777Z,25.25
2017-04-21T07:16:24.604Z,24.17
2017-04-21T07:17:22.425Z,24.60
2017-04-21T07:18:20.962Z,25.07
2017-04-21T07:19:18.811Z,25.10
2017-04-21T07:20:16.628Z,24.27
2017-04-21T07:21:14.491Z,26.45
2017-04-21T07:22:12.749Z,27.05
2017-04-21T07:23:11.055Z,26.38
2017-04-21T07:24:08.924Z,27.22
2017-04-21T07:25:06.793Z,25.48
2017-04-21T07:26:04.623Z,25.00
2017-04-21T07:27:02.472Z,25.22
2017-04-21T07:28:00.354Z,29.10
2017-04-21T07:28:58.259Z,24.72
2017-04-21T07:29:56.166Z,26.73
2017-04-21T07:30:53.997Z,24.20
2017-04-21T07:31:51.821Z,24.98
2017-04-21T07:32:49.661Z,24.85
2017-04-21T07:33:47.891Z,26.10
2017-04-21T07:34:45.739Z,26.33
2017-04-21T07:36:41.522Z,26.02
2017-04-21T07:37:39.372Z,26.33
2017-04-21T07:38:37.206Z,27.08
2017-04-21T07:39:35.060Z,25.62
2017-04-21T07:40:32.899Z,25.68
2017-04-21T07:41:30.821Z,26.30
2017-04-21T07:42:29.033Z,27.17
2017-04-21T07:43:26.853Z,25.28
2017-04-21T07:44:24.681Z,25.83
2017-04-21T07:45:22.529Z,30.85
2017-04-21T07:46:20.353Z,25.68
2017-04-21T07:47:18.253Z,25.28
2017-04-21T07:48:16.080Z,25.80
2017-04-21T07:49:14.308Z,26.52
2017-04-21T07:50:12.165Z,27.35
2017-04-21T07:51:09.985Z,25.18
2017-04-21T07:52:07.863Z,26.93
2017-04-21T07:53:05.777Z,28.03
2017-04-21T07:54:03.630Z,25.75
2017-04-21T07:55:01.458Z,30.03
2017-04-21T07:55:59.324Z,26.67
2017-04-21T07:56:57.166Z,27.45
2017-04-21T07:57:54.993Z,27.33
2017-04-21T07:58:52.942Z,26.37
2017-04-21T07:59:57.531Z,26.90
2017-04-21T08:00:48.686Z,27.33
2017-04-21T08:01:46.545Z,27.33
2017-04-21T08:02:44.401Z,27.48
2017-04-21T08:03:41.877Z,27.42
2017-04-21T08:04:39.787Z,26.82
2017-04-21T08:05:37.633Z,28.70
2017-04-21T08:06:35.469Z,27.98
2017-04-21T08:07:33.330Z,28.85
2017-04-21T08:08:31.154Z,27.93
2017-04-21T08:09:29.005Z,29.33
2017-04-21T08:10:27.001Z,28.05
2017-04-21T08:11:24.857Z,28.20
2017-04-21T08:12:23.039Z,27.13
2017-04-21T08:13:20.942Z,27.62
2017-04-21T08:14:18.398Z,24.92
2017-04-21T08:15:16.237Z,28.92
2017-04-21T08:16:14.149Z,28.07
2017-04-21T08:17:11.977Z,30.93
2017-04-21T08:18:09.806Z,51.12
2017-04-21T08:19:07.645Z,60.52
2017-04-21T08:20:05.458Z,36.08
2017-04-21T08:21:03.278Z,31.98
2017-04-21T08:22:01.158Z,34.77
2017-04-21T08:22:58.985Z,31.25
2017-04-21T08:23:56.813Z,29.73
2017-04-21T08:24:54.662Z,34.32
2017-04-21T08:25:52.494Z,28.73
2017-04-21T08:26:50.377Z,28.83
2017-04-21T08:27:48.249Z,28.22
2017-04-21T08:28:46.117Z,31.10
2017-04-21T08:29:43.945Z,30.48
2017-04-21T08:30:41.781Z,30.43
2017-04-21T08:31:39.613Z,29.32
2017-04-21T08:32:37.434Z,29.83
2017-04-21T08:33:35.667Z,27.58
2017-04-21T08:34:33.505Z,30.82
2017-04-21T08:35:31.422Z,30.57
2017-04-21T08:36:29.257Z,32.37
2017-04-21T08:37:27.469Z,31.67
2017-04-21T08:38:25.294Z,31.28
2017-04-21T08:39:23.157Z,40.35
2017-04-21T08:40:20.986Z,33.00
2017-04-21T08:41:18.870Z,31.72
2017-04-21T08:42:16.699Z,30.65
2017-04-21T08:43:14.536Z,30.72
2017-04-21T08:44:12.765Z,32.37
2017-04-21T08:45:10.651Z,30.18
2017-04-21T08:46:08.545Z,30.90
2017-04-21T08:47:06.369Z,29.83
2017-04-21T08:48:04.189Z,33.23
2017-04-21T08:49:02.021Z,33.90
2017-04-21T08:49:59.838Z,35.27
2017-04-21T08:50:57.712Z,32.42
2017-04-21T08:51:55.559Z,32.60
2017-04-21T08:52:53.685Z,32.92
2017-04-21T08:53:51.526Z,33.93
2017-04-21T08:54:49.361Z,33.62
2017-04-21T08:55:46.795Z,34.85
2017-04-21T08:56:44.718Z,33.33
2017-04-21T08:57:42.538Z,32.70
2017-04-21T08:58:40.440Z,33.23
2017-04-21T08:59:38.301Z,34.75
2017-04-21T09:00:36.139Z,33.47
2017-04-21T09:01:33.973Z,32.15
2017-04-21T09:02:31.837Z,31.98
2017-04-21T09:03:29.690Z,33.00
2017-04-21T09:04:27.129Z,32.63
2017-04-21T09:05:24.946Z,34.72
2017-04-21T09:06:22.804Z,32.52
2017-04-21T09:07:20.841Z,32.33
2017-04-21T09:08:18.703Z,32.28
2017-04-21T09:09:16.602Z,32.67
2017-04-21T09:10:14.437Z,33.80
2017-04-21T09:11:12.384Z,30.62
2017-04-21T09:12:10.209Z,33.75
2017-04-21T09:13:08.026Z,38.03
2017-04-21T09:14:06.275Z,41.42
2017-04-21T09:15:04.091Z,36.50
2017-04-21T09:16:02.142Z,34.43
2017-04-21T09:17:00.290Z,33.27
2017-04-21T09:17:58.150Z,33.68
2017-04-21T09:18:56.002Z,33.93
2017-04-21T09:19:53.905Z,33.30
2017-04-21T09:20:51.733Z,35.20
2017-04-21T09:21:49.564Z,31.78
2017-04-21T09:22:47.405Z,35.17
2017-04-21T09:23:45.242Z,34.87
2017-04-21T09:24:43.066Z,34.98
2017-04-21T09:25:41.081Z,35.10
2017-04-21T09:26:38.918Z,35.02
2017-04-21T09:27:36.770Z,33.95
2017-04-21T09:28:34.606Z,33.90
2017-04-21T09:29:32.770Z,32.48
2017-04-21T09:30:30.610Z,34.02
2017-04-21T09:31:28.466Z,34.48
2017-04-21T09:32:26.294Z,34.77
2017-04-21T09:33:24.141Z,36.33
2017-04-21T09:34:33.409Z,36.83
2017-04-21T09:35:34.401Z,34.73
2017-04-21T09:36:17.738Z,36.92
2017-04-21T09:37:15.689Z,34.60
2017-04-21T09:38:13.495Z,34.70
2017-04-21T09:39:11.438Z,34.35
2017-04-21T09:40:09.474Z,32.53
2017-04-21T09:41:07.337Z,32.62
2017-04-21T09:42:11.290Z,33.87
2017-04-21T09:43:03.084Z,33.43
2017-04-21T09:44:01.273Z,32.60
2017-04-21T09:44:59.454Z,33.10
2017-04-21T09:45:57.290Z,35.23
2017-04-21T09:46:55.437Z,34.47
2017-04-21T09:47:53.928Z,32.80
2017-04-21T09:48:52.008Z,35.28
2017-04-21T09:49:49.973Z,35.10
2017-04-21T09:50:54.226Z,32.33
2017-04-21T09:53:43.985Z,34.63
2017-04-21T09:54:14.225Z,36.05
2017-04-21T09:54:46.152Z,36.97
2017-04-21T09:56:55.848Z,35.15
2017-04-21T09:56:55.853Z,33.77
2017-04-21T09:57:18.808Z,35.38
2017-04-21T10:00:53.929Z,37.27
2017-04-21T10:01:32.402Z,34.52
2017-04-21T10:02:58.228Z,35.60
2017-04-21T10:04:21.623Z,36.03
2017-04-21T10:04:31.539Z,35.58
2017-04-21T10:04:49.587Z,36.23
2017-04-21T10:04:53.981Z,33.50
2017-04-21T10:05:24.283Z,34.82
2017-04-21T10:06:25.951Z,33.25
2017-04-21T10:08:06.447Z,34.28
2017-04-21T10:08:06.465Z,35.52
2017-04-21T10:08:21.616Z,34.70
2017-04-21T10:09:16.270Z,35.07
2017-04-21T10:10:14.294Z,34.65
2017-04-21T10:11:12.501Z,34.88
2017-04-21T10:12:10.732Z,36.38
2017-04-21T10:13:08.946Z,33.88
2017-04-21T10:14:07.411Z,36.88
2017-04-21T10:15:05.394Z,34.47
2017-04-21T10:16:03.948Z,35.55
2017-04-21T10:17:02.018Z,35.70
2017-04-21T10:17:59.843Z,38.35
2017-04-21T10:18:58.085Z,37.42
2017-04-21T10:19:56.058Z,35.25
2017-04-21T10:20:53.914Z,35.17
2017-04-21T10:21:52.227Z,33.77
2017-04-21T10:22:50.476Z,34.00
2017-04-21T10:23:48.374Z,34.55
2017-04-21T10:24:45.846Z,36.52
2017-04-21T10:25:43.702Z,34.65
2017-04-21T10:26:41.561Z,33.58
2017-04-21T10:27:39.390Z,35.97
2017-04-21T10:28:37.298Z,35.82
2017-04-21T10:29:35.155Z,36.05
2017-04-21T10:30:33.049Z,34.47
2017-04-21T10:31:30.889Z,35.08
2017-04-21T10:32:28.717Z,34.53
2017-04-21T10:33:26.582Z,35.03
2017-04-21T10:34:24.409Z,34.05
2017-04-21T10:35:22.254Z,34.32
2017-04-21T10:36:20.174Z,32.70
2017-04-21T10:37:18.041Z,34.03
2017-04-21T10:38:15.901Z,35.15
2017-04-21T10:39:13.749Z,34.20
2017-04-21T10:40:11.626Z,35.47
2017-04-21T10:41:09.493Z,35.05
2017-04-21T10:42:07.383Z,34.22
2017-04-21T10:43:05.234Z,34.70
2017-04-21T10:44:03.174Z,34.77
2017-04-21T10:45:01.081Z,34.60
2017-04-21T10:45:58.937Z,33.58
2017-04-21T10:46:56.782Z,33.42
2017-04-21T10:47:54.685Z,35.02
2017-04-21T10:48:52.534Z,37.43
2017-04-21T10:49:50.402Z,34.10
2017-04-21T10:50:48.277Z,34.20
2017-04-21T10:51:46.209Z,34.15
2017-04-21T10:52:43.678Z,33.32
2017-04-21T10:53:42.478Z,36.08
2017-04-21T10:54:40.364Z,32.90
2017-04-21T10:55:38.242Z,32.62
2017-04-21T10:56:36.110Z,31.08
2017-04-21T10:57:34.061Z,33.38
2017-04-21T10:58:32.047Z,32.55
2017-04-21T10:59:29.954Z,33.72
2017-04-21T11:00:27.793Z,32.02
2017-04-21T11:01:25.837Z,33.32
2017-04-21T11:02:23.685Z,32.60
2017-04-21T11:03:21.558Z,33.02
2017-04-21T11:04:19.409Z,31.57
2017-04-21T11:05:17.281Z,32.55
2017-04-21T11:06:15.137Z,32.35
2017-04-21T11:07:12.999Z,30.05
2017-04-21T11:08:10.830Z,31.45
2017-04-21T11:09:08.662Z,32.45
2017-04-21T11:10:06.509Z,32.28
2017-04-21T11:11:04.430Z,32.43
2017-04-21T11:12:02.369Z,35.23
2017-04-21T11:13:00.200Z,32.15
2017-04-21T11:13:58.140Z,32.38
2017-04-21T11:14:56.024Z,34.05
2017-04-21T11:15:53.966Z,31.83
2017-04-21T11:16:51.873Z,32.68
2017-04-21T11:17:49.766Z,33.50
2017-04-21T11:18:47.611Z,33.88
2017-04-21T11:19:45.461Z,32.03
2017-04-21T11:20:42.934Z,33.97
2017-04-21T11:21:40.809Z,32.18
2017-04-21T11:22:38.713Z,33.18
2017-04-21T11:23:36.565Z,36.07
2017-04-21T11:24:34.430Z,34.57
2017-04-21T11:25:32.285Z,47.25
2017-04-21T11:26:30.140Z,36.92
2017-04-21T11:27:27.973Z,39.32
2017-04-21T11:28:26.127Z,37.02
2017-04-21T11:29:23.994Z,31.77
2017-04-21T11:30:21.847Z,33.08
2017-04-21T11:31:20.086Z,32.47
2017-04-21T11:32:17.962Z,31.12
2017-04-21T11:33:15.960Z,34.32
2017-04-21T11:34:14.173Z,31.38
2017-04-21T11:35:12.311Z,33.05
2017-04-21T11:36:10.151Z,33.65
2017-04-21T11:37:07.989Z,32.97
2017-04-21T11:38:05.839Z,33.80
2017-04-21T11:39:04.593Z,31.80
2017-04-21T11:40:02.450Z,31.38
2017-04-21T11:41:00.810Z,34.28
2017-04-21T11:41:58.272Z,31.10
2017-04-21T11:42:56.154Z,31.42
2017-04-21T11:43:54.270Z,30.82
2017-04-21T11:44:52.433Z,32.67
2017-04-21T11:45:50.440Z,30.22
2017-04-21T11:46:48.977Z,31.90
2017-04-21T11:47:47.348Z,30.62
2017-04-21T11:48:46.515Z,34.25
2017-04-21T11:49:44.343Z,29.83
2017-04-21T11:50:42.687Z,33.18
2017-04-21T11:51:41.992Z,32.85
2017-04-21T11:52:40.622Z,32.01
2017-04-21T11:53:38.521Z,32.12
2017-04-21T11:54:36.743Z,30.85
2017-04-21T11:55:34.633Z,32.17
2017-04-21T11:56:32.441Z,33.22
2017-04-21T11:57:31.027Z,32.82
2017-04-21T11:58:30.170Z,32.15
2017-04-21T11:59:28.030Z,31.53
2017-04-21T12:00:25.849Z,32.68
2017-04-21T12:01:23.749Z,32.68
2017-04-21T12:02:21.606Z,30.38
2017-04-21T12:03:20.025Z,25.85
2017-04-21T12:04:17.838Z,28.38
2017-04-21T12:05:15.913Z,21.78
2017-04-21T12:06:13.768Z,20.98
2017-04-21T12:07:11.618Z,20.43
2017-04-21T12:08:09.886Z,22.25
2017-04-21T12:09:07.413Z,20.97
2017-04-21T12:10:05.390Z,22.77
2017-04-21T12:11:03.285Z,22.22
2017-04-21T12:12:01.656Z,22.18
2017-04-21T12:13:00.425Z,23.52
2017-04-21T12:13:59.410Z,22.65
2017-04-21T12:14:57.274Z,23.98
2017-04-21T12:15:55.148Z,23.22
2017-04-21T12:16:53.482Z,23.73
2017-04-21T12:17:51.570Z,25.23
2017-04-21T12:18:49.883Z,24.93
2017-04-21T12:19:48.095Z,24.67
2017-04-21T12:20:45.997Z,25.20
2017-04-21T12:21:43.821Z,24.80
2017-04-21T12:22:41.681Z,24.00
2017-04-21T12:23:40.023Z,23.52
2017-04-21T12:24:37.564Z,24.70
2017-04-21T12:25:35.901Z,24.63
2017-04-21T12:26:33.972Z,22.67
2017-04-21T12:27:31.890Z,25.65